Terminal Aerodrome Forecast
Issued by NWS

Home | Current Version | Previous Version | Text Only | Print | Product List | Glossary On
Versions: 1 2 3 4 5 6 7 8 9 10 11 12 13 14 15 16 17 18 19
000
FTUS43 KOAX 261600 AAB
TAFCDR
TAF AMD
KCDR 261600Z 2616/2712 VRB05KT P6SM -SHSN BKN020 OVC080
      TEMPO 2616/2618 2SM -SN
     FM261800 VRB05KT P6SM BKN050 OVC100
     FM270100 14004KT P6SM BKN100=

USA.gov is the U.S. government's official web portal to all federal, state and local government web resources and services.